createdAt,value
2018-11-05T00:00:34.122Z,12.68
2018-11-05T00:05:56.837Z,12.72
2018-11-05T00:08:29.641Z,12.71
2018-11-05T00:11:02.663Z,12.81
2018-11-05T00:13:35.920Z,12.87
2018-11-05T00:16:09.460Z,12.92
2018-11-05T00:18:40.894Z,12.92
2018-11-05T00:21:13.820Z,12.99
2018-11-05T00:23:47.420Z,12.99
2018-11-05T00:26:20.412Z,13.05
2018-11-05T00:28:51.927Z,13.05
2018-11-05T00:31:25.328Z,13.07
2018-11-05T00:33:56.934Z,13.11
2018-11-05T00:36:30.250Z,13.10
2018-11-05T00:39:03.430Z,13.08
2018-11-05T00:41:34.883Z,13.06
2018-11-05T00:44:08.592Z,13.05
2018-11-05T00:46:41.561Z,13.09
2018-11-05T00:49:14.395Z,13.06
2018-11-05T00:54:08.762Z,13.16
2018-11-05T00:56:41.820Z,13.08
2018-11-05T00:59:14.788Z,13.08
2018-11-05T01:01:48.251Z,13.09
2018-11-05T01:04:21.081Z,13.08
2018-11-05T01:06:54.109Z,13.11
2018-11-05T01:09:27.252Z,13.11
2018-11-05T01:12:01.366Z,13.09
2018-11-05T01:14:33.025Z,13.13
2018-11-05T01:17:06.109Z,13.13
2018-11-05T01:19:41.201Z,13.15
2018-11-05T01:22:14.405Z,13.16
2018-11-05T01:24:45.829Z,13.18
2018-11-05T01:27:18.644Z,13.17
2018-11-05T01:29:51.561Z,13.10
2018-11-05T01:32:24.413Z,13.10
2018-11-05T01:34:55.716Z,13.07
2018-11-05T01:37:28.638Z,13.10
2018-11-05T01:40:01.818Z,13.11
2018-11-05T01:42:34.660Z,13.11
2018-11-05T01:45:08.659Z,13.17
2018-11-05T01:47:42.164Z,13.17
2018-11-05T01:50:17.127Z,13.21
2018-11-05T01:52:50.012Z,13.18
2018-11-05T01:55:23.095Z,13.20
2018-11-05T01:57:56.008Z,13.19
2018-11-05T02:00:29.107Z,13.23
2018-11-05T02:03:03.108Z,13.25
2018-11-05T02:05:36.098Z,13.18
2018-11-05T02:08:09.161Z,13.18
2018-11-05T02:10:42.154Z,13.19
2018-11-05T02:13:15.190Z,13.15
2018-11-05T02:15:48.165Z,13.16
2018-11-05T02:18:21.091Z,13.09
2018-11-05T02:20:54.131Z,13.13
2018-11-05T02:23:27.132Z,13.11
2018-11-05T02:26:00.138Z,13.10
2018-11-05T02:28:33.115Z,13.13
2018-11-05T02:31:06.117Z,13.17
2018-11-05T02:33:39.232Z,13.23
2018-11-05T02:36:12.390Z,13.29
2018-11-05T02:38:43.629Z,13.28
2018-11-05T02:41:16.512Z,13.26
2018-11-05T02:43:49.409Z,13.21
2018-11-05T02:46:20.876Z,13.21
2018-11-05T02:48:53.923Z,13.20
2018-11-05T02:51:26.619Z,13.20
2018-11-05T02:53:59.841Z,13.17
2018-11-05T02:56:32.617Z,13.17
2018-11-05T02:59:05.623Z,13.15
2018-11-05T03:04:17.660Z,13.26
2018-11-05T03:06:50.617Z,13.22
2018-11-05T03:09:23.472Z,13.26
2018-11-05T03:11:55.043Z,13.26
2018-11-05T03:14:28.236Z,13.25
2018-11-05T03:17:01.257Z,13.23
2018-11-05T03:21:49.658Z,13.28
2018-11-05T03:24:22.409Z,13.21
2018-11-05T03:26:53.886Z,13.22
2018-11-05T03:29:26.810Z,13.11
2018-11-05T03:31:59.617Z,13.08
2018-11-05T03:34:33.478Z,13.07
2018-11-05T03:37:06.341Z,13.09
2018-11-05T03:39:37.451Z,13.09
2018-11-05T03:42:09.269Z,13.14
2018-11-05T03:44:42.346Z,13.16
2018-11-05T03:47:15.414Z,13.21
2018-11-05T03:49:46.922Z,13.13
2018-11-05T03:52:19.657Z,13.13
2018-11-05T03:54:52.445Z,13.10
2018-11-05T03:57:23.529Z,13.10
2018-11-05T03:59:56.463Z,13.11
2018-11-05T04:02:27.448Z,13.11
2018-11-05T04:04:58.877Z,13.17
2018-11-05T04:07:31.658Z,13.16
2018-11-05T04:10:04.459Z,13.18
2018-11-05T04:12:35.912Z,13.03
2018-11-05T04:15:08.709Z,13.17
2018-11-05T04:17:41.536Z,13.10
2018-11-05T04:20:15.688Z,13.10
2018-11-05T04:22:48.467Z,13.14
2018-11-05T04:25:19.658Z,13.14
2018-11-05T04:27:52.626Z,13.16
2018-11-05T04:30:25.385Z,13.16
2018-11-05T04:35:45.661Z,13.30
2018-11-05T04:38:18.448Z,13.31
2018-11-05T04:40:49.836Z,13.25
2018-11-05T04:43:22.650Z,13.22
2018-11-05T04:45:55.536Z,13.22
2018-11-05T04:48:26.855Z,13.32
2018-11-05T04:50:59.611Z,13.21
2018-11-05T04:53:32.450Z,13.21
2018-11-05T04:56:03.847Z,13.18
2018-11-05T04:58:37.255Z,13.23
2018-11-05T05:01:10.437Z,13.22
2018-11-05T05:03:41.907Z,13.24
2018-11-05T05:06:14.654Z,13.30
2018-11-05T05:08:47.416Z,13.34
2018-11-05T05:11:21.344Z,13.34
2018-11-05T05:13:52.685Z,13.29
2018-11-05T05:16:25.598Z,13.30
2018-11-05T05:18:56.892Z,13.30
2018-11-05T05:21:29.631Z,13.29
2018-11-05T05:24:02.975Z,13.23
2018-11-05T05:26:35.975Z,13.23
2018-11-05T05:29:08.973Z,13.23
2018-11-05T05:31:42.914Z,13.19
2018-11-05T05:34:15.627Z,13.11
2018-11-05T05:36:48.493Z,13.09
2018-11-05T05:39:19.880Z,13.09
2018-11-05T05:41:52.671Z,13.09
2018-11-05T05:44:25.498Z,13.11
2018-11-05T05:46:58.407Z,13.18
2018-11-05T05:49:29.604Z,13.18
2018-11-05T05:52:02.594Z,13.10
2018-11-05T05:54:35.448Z,13.10
2018-11-05T05:59:00.495Z,13.18
2018-11-05T06:01:33.372Z,13.17
2018-11-05T06:04:05.677Z,13.16
2018-11-05T06:06:38.790Z,13.02
2018-11-05T06:09:12.416Z,13.01
2018-11-05T06:11:45.532Z,13.01
2018-11-05T06:14:17.024Z,12.98
2018-11-05T06:16:50.252Z,12.95
2018-11-05T06:19:23.258Z,13.02
2018-11-05T06:21:56.510Z,13.01
2018-11-05T06:24:29.431Z,13.02
2018-11-05T06:27:02.453Z,12.94
2018-11-05T06:29:33.901Z,12.99
2018-11-05T06:32:06.985Z,13.05
2018-11-05T06:34:40.140Z,13.05
2018-11-05T06:37:14.256Z,13.05
2018-11-05T06:39:48.416Z,13.07
2018-11-05T06:42:20.036Z,13.12
2018-11-05T06:44:53.173Z,13.17
2018-11-05T06:47:26.138Z,13.22
2018-11-05T06:49:59.405Z,13.22
2018-11-05T06:52:31.372Z,13.25
2018-11-05T06:55:02.887Z,13.21
2018-11-05T06:57:35.945Z,13.21
2018-11-05T07:00:15.986Z,13.33
2018-11-05T07:02:49.265Z,13.40
2018-11-05T07:05:22.457Z,13.43
2018-11-05T07:07:53.902Z,13.42
2018-11-05T07:10:27.239Z,13.43
2018-11-05T07:13:00.360Z,13.40
2018-11-05T07:15:31.908Z,13.46
2018-11-05T07:18:04.973Z,13.54
2018-11-05T07:20:38.118Z,13.47
2018-11-05T07:23:12.268Z,13.58
2018-11-05T07:25:46.480Z,13.57
2018-11-05T07:28:17.898Z,13.49
2018-11-05T07:30:50.825Z,13.53
2018-11-05T07:33:23.668Z,13.52
2018-11-05T07:35:56.666Z,13.59
2018-11-05T07:38:29.637Z,13.78
2018-11-05T07:41:02.636Z,13.84
2018-11-05T07:43:35.671Z,14.06
2018-11-05T07:46:08.619Z,14.06
2018-11-05T07:48:41.517Z,14.12
2018-11-05T07:51:14.498Z,14.29
2018-11-05T07:53:47.431Z,14.44
2018-11-05T07:56:18.978Z,14.72
2018-11-05T07:58:51.665Z,15.16
2018-11-05T08:01:24.491Z,15.16
2018-11-05T08:03:55.901Z,15.52
2018-11-05T08:06:28.692Z,15.70
2018-11-05T08:09:01.631Z,16.06
2018-11-05T08:11:34.639Z,16.21
2018-11-05T08:14:07.702Z,16.53
2018-11-05T08:16:40.617Z,16.79
2018-11-05T08:19:12.260Z,16.79
2018-11-05T08:21:45.528Z,16.90
2018-11-05T08:24:17.257Z,17.02
2018-11-05T08:26:50.260Z,16.88
2018-11-05T08:29:23.376Z,16.72
2018-11-05T08:31:54.893Z,16.57
2018-11-05T08:34:27.905Z,16.60
2018-11-05T08:37:01.123Z,16.48
2018-11-05T08:39:34.258Z,16.36
2018-11-05T08:42:07.428Z,16.45
2018-11-05T08:44:39.049Z,16.42
2018-11-05T08:47:12.271Z,16.51
2018-11-05T08:49:45.423Z,16.18
2018-11-05T08:52:18.463Z,16.18
2018-11-05T08:54:49.908Z,16.18
2018-11-05T08:57:22.703Z,16.12
2018-11-05T08:59:55.678Z,15.94
2018-11-05T09:02:28.641Z,16.04
2018-11-05T09:05:01.741Z,16.10
2018-11-05T09:07:34.664Z,16.23
2018-11-05T09:10:08.254Z,16.30
2018-11-05T09:12:41.263Z,16.30
2018-11-05T09:15:19.436Z,16.25
2018-11-05T09:17:50.897Z,16.25
2018-11-05T09:20:23.645Z,16.46
2018-11-05T09:22:56.675Z,16.46
2018-11-05T09:25:29.494Z,16.62
2018-11-05T09:28:00.945Z,16.78
2018-11-05T09:30:33.716Z,16.83
2018-11-05T09:33:06.680Z,16.79
2018-11-05T09:35:39.629Z,17.05
2018-11-05T09:38:12.411Z,17.05
2018-11-05T09:40:45.424Z,17.09
2018-11-05T09:43:17.357Z,17.34
2018-11-05T09:45:50.903Z,17.34
2018-11-05T09:48:24.152Z,17.40
2018-11-05T09:50:59.143Z,17.59
2018-11-05T09:53:34.266Z,17.64
2018-11-05T09:56:07.459Z,17.70
2018-11-05T09:58:39.083Z,17.97
2018-11-05T10:01:13.213Z,17.86
2018-11-05T10:03:59.328Z,17.85
2018-11-05T10:06:32.326Z,17.68
2018-11-05T10:09:05.658Z,17.57
2018-11-05T10:11:38.649Z,17.63
2018-11-05T10:14:11.691Z,18.14
2018-11-05T10:16:44.789Z,18.51
2018-11-05T10:19:17.639Z,19.03
2018-11-05T10:21:50.681Z,19.03
2018-11-05T10:24:23.679Z,20.16
2018-11-05T10:26:56.643Z,20.27
2018-11-05T10:29:29.762Z,20.42
2018-11-05T10:32:02.990Z,20.42
2018-11-05T10:34:36.139Z,20.94
2018-11-05T10:37:09.202Z,21.08
2018-11-05T10:39:42.420Z,21.18
2018-11-05T10:42:15.442Z,20.96
2018-11-05T10:44:46.908Z,21.31
2018-11-05T10:47:20.257Z,21.68
2018-11-05T10:49:53.259Z,21.54
2018-11-05T10:52:26.284Z,20.76
2018-11-05T10:55:05.262Z,20.79
2018-11-05T10:57:38.465Z,20.87
2018-11-05T11:00:37.117Z,21.07
2018-11-05T11:03:16.426Z,21.35
2018-11-05T11:05:49.429Z,21.89
2018-11-05T11:08:22.445Z,22.01
2018-11-05T11:10:55.442Z,22.16
2018-11-05T11:13:26.904Z,22.45
2018-11-05T11:16:00.135Z,22.80
2018-11-05T11:18:33.122Z,22.73
2018-11-05T11:21:06.253Z,22.69
2018-11-05T11:23:39.257Z,22.73
2018-11-05T11:26:12.426Z,22.36
2018-11-05T11:28:44.362Z,23.19
2018-11-05T11:31:17.419Z,22.75
2018-11-05T11:33:49.716Z,22.64
2018-11-05T11:36:22.766Z,23.19
2018-11-05T11:38:55.645Z,23.27
2018-11-05T11:41:28.681Z,22.90
2018-11-05T11:44:01.703Z,23.20
2018-11-05T11:46:34.632Z,23.09
2018-11-05T11:49:08.368Z,23.09
2018-11-05T11:51:39.907Z,22.29
2018-11-05T11:54:13.261Z,21.58
2018-11-05T11:56:46.505Z,21.78
2018-11-05T11:59:19.663Z,21.90
2018-11-05T12:02:10.395Z,22.04
2018-11-05T12:04:41.668Z,22.04
2018-11-05T12:07:14.985Z,22.18
2018-11-05T12:09:48.413Z,21.83
2018-11-05T12:12:20.022Z,21.32
2018-11-05T12:14:53.212Z,21.40
2018-11-05T12:17:26.256Z,21.45
2018-11-05T12:19:59.258Z,21.20
2018-11-05T12:22:32.262Z,20.98
2018-11-05T12:25:05.531Z,20.81
2018-11-05T12:27:36.895Z,20.22
2018-11-05T12:30:16.129Z,19.84
2018-11-05T12:32:51.151Z,19.48
2018-11-05T12:35:24.279Z,19.06
2018-11-05T12:37:57.444Z,18.83
2018-11-05T12:40:28.887Z,18.97
2018-11-05T12:43:01.989Z,18.97
2018-11-05T12:45:35.135Z,18.84
2018-11-05T12:48:08.554Z,18.69
2018-11-05T12:50:41.600Z,18.79
2018-11-05T12:53:16.258Z,18.95
2018-11-05T12:55:49.476Z,19.09
2018-11-05T12:58:20.899Z,19.27
2018-11-05T13:00:53.803Z,18.81
2018-11-05T13:03:26.645Z,18.81
2018-11-05T13:05:59.639Z,18.57
2018-11-05T13:08:32.812Z,18.56
2018-11-05T13:11:05.916Z,18.56
2018-11-05T13:13:38.915Z,18.29
2018-11-05T13:16:12.157Z,18.18
2018-11-05T13:18:46.430Z,17.85
2018-11-05T13:21:18.307Z,17.68
2018-11-05T13:23:51.442Z,17.68
2018-11-05T13:26:24.409Z,17.59
2018-11-05T13:28:55.891Z,17.53
2018-11-05T13:31:29.116Z,17.38
2018-11-05T13:34:02.106Z,17.46
2018-11-05T13:36:35.319Z,17.51
2018-11-05T13:39:11.634Z,17.49
2018-11-05T13:41:44.618Z,17.49
2018-11-05T13:44:17.431Z,17.49
2018-11-05T13:46:50.683Z,17.32
2018-11-05T13:49:23.624Z,17.29
2018-11-05T13:51:56.434Z,17.20
2018-11-05T13:54:29.612Z,17.13
2018-11-05T13:57:02.513Z,17.15
2018-11-05T13:59:33.895Z,17.27
2018-11-05T14:02:07.402Z,17.27
2018-11-05T14:04:38.962Z,17.14
2018-11-05T14:07:12.235Z,17.23
2018-11-05T14:09:45.252Z,17.23
2018-11-05T14:12:18.650Z,17.18
2018-11-05T14:14:51.639Z,17.13
2018-11-05T14:17:24.667Z,17.11
2018-11-05T14:19:57.672Z,17.15
2018-11-05T14:22:30.672Z,16.98
2018-11-05T14:25:03.653Z,16.83
2018-11-05T14:27:36.843Z,16.77
2018-11-05T14:30:12.599Z,16.77
2018-11-05T14:32:45.077Z,16.76
2018-11-05T14:35:18.393Z,16.66
2018-11-05T14:37:49.899Z,16.57
2018-11-05T14:40:23.128Z,16.44
2018-11-05T14:42:56.339Z,16.36
2018-11-05T14:45:29.393Z,16.27
2018-11-05T14:48:01.887Z,16.20
2018-11-05T14:50:35.120Z,16.19
2018-11-05T14:53:09.124Z,15.92
2018-11-05T14:55:43.147Z,15.92
2018-11-05T14:58:17.247Z,15.94
2018-11-05T15:00:50.444Z,15.87
2018-11-05T15:03:22.243Z,15.78
2018-11-05T15:05:56.479Z,15.73
2018-11-05T15:08:27.886Z,15.76
2018-11-05T15:11:01.225Z,15.77
2018-11-05T15:13:34.450Z,15.70
2018-11-05T15:16:07.481Z,15.72
2018-11-05T15:18:40.634Z,15.70
2018-11-05T15:21:13.542Z,15.70
2018-11-05T15:23:46.409Z,15.63
2018-11-05T15:26:17.695Z,15.59
2018-11-05T15:28:50.665Z,15.39
2018-11-05T15:31:23.764Z,15.35
2018-11-05T15:33:56.796Z,15.35
2018-11-05T15:36:29.915Z,15.30
2018-11-05T15:39:02.896Z,15.30
2018-11-05T15:41:36.246Z,15.28
2018-11-05T15:44:09.982Z,15.24
2018-11-05T15:46:42.977Z,15.16
2018-11-05T15:49:16.136Z,15.19
2018-11-05T15:51:50.620Z,15.18
2018-11-05T15:54:24.571Z,15.16
2018-11-05T15:56:57.451Z,15.18
2018-11-05T15:59:28.892Z,15.14
2018-11-05T16:02:14.968Z,15.19
2018-11-05T16:04:48.194Z,15.18
2018-11-05T16:07:24.396Z,15.10
2018-11-05T16:09:55.896Z,15.07
2018-11-05T16:12:29.130Z,14.94
2018-11-05T16:15:02.407Z,14.99
2018-11-05T16:17:35.438Z,15.00
2018-11-05T16:20:07.441Z,15.01
2018-11-05T16:22:39.077Z,15.01
2018-11-05T16:26:37.676Z,15.05
2018-11-05T16:29:10.628Z,15.02
2018-11-05T16:31:42.261Z,15.02
2018-11-05T16:34:15.490Z,15.00
2018-11-05T16:36:48.473Z,14.96
2018-11-05T16:39:21.427Z,14.87
2018-11-05T16:41:52.961Z,14.88
2018-11-05T16:44:26.123Z,14.94
2018-11-05T16:46:59.274Z,14.94
2018-11-05T16:49:32.388Z,14.99
2018-11-05T16:52:03.892Z,14.99
2018-11-05T16:54:36.626Z,14.98
2018-11-05T16:57:09.775Z,15.00
2018-11-05T16:59:43.348Z,15.00
2018-11-05T17:02:17.898Z,15.03
2018-11-05T17:04:48.889Z,14.98
2018-11-05T17:07:21.660Z,15.00
2018-11-05T17:09:54.610Z,14.95
2018-11-05T17:12:27.468Z,15.02
2018-11-05T17:14:58.887Z,15.02
2018-11-05T17:17:31.611Z,15.10
2018-11-05T17:20:04.452Z,15.03
2018-11-05T17:22:35.879Z,14.99
2018-11-05T17:25:09.968Z,14.99
2018-11-05T17:27:43.394Z,14.96
2018-11-05T17:30:19.383Z,14.96
2018-11-05T17:32:50.800Z,15.02
2018-11-05T17:35:23.650Z,15.04
2018-11-05T17:37:56.630Z,14.98
2018-11-05T17:40:29.611Z,14.90
2018-11-05T17:43:02.474Z,14.90
2018-11-05T17:45:33.887Z,14.95
2018-11-05T17:48:06.800Z,14.99
2018-11-05T17:50:39.635Z,15.00
2018-11-05T17:53:12.480Z,15.00
2018-11-05T17:55:45.405Z,14.97
2018-11-05T17:58:18.510Z,15.00
2018-11-05T18:00:51.386Z,15.04
2018-11-05T18:03:24.522Z,15.04
2018-11-05T18:05:57.435Z,15.05
2018-11-05T18:08:30.482Z,14.91
2018-11-05T18:11:03.403Z,14.91
2018-11-05T18:13:36.390Z,14.91
2018-11-05T18:16:30.159Z,14.87
2018-11-05T18:19:03.228Z,14.90
2018-11-05T18:21:36.123Z,14.90
2018-11-05T18:24:09.479Z,14.94
2018-11-05T18:26:40.606Z,14.88
2018-11-05T18:29:13.416Z,14.88
2018-11-05T18:31:44.889Z,14.90
2018-11-05T18:34:17.615Z,14.88
2018-11-05T18:36:50.392Z,14.88
2018-11-05T18:39:23.464Z,14.91
2018-11-05T18:41:54.887Z,14.96
2018-11-05T18:44:27.646Z,14.95
2018-11-05T18:47:00.429Z,15.02
2018-11-05T18:49:31.980Z,14.92
2018-11-05T18:52:05.247Z,14.96
2018-11-05T18:54:38.610Z,14.96
2018-11-05T18:57:11.557Z,14.95
2018-11-05T18:59:42.672Z,14.99
2018-11-05T19:02:35.322Z,14.93
2018-11-05T19:05:08.359Z,14.93
2018-11-05T19:07:41.526Z,14.85
2018-11-05T19:11:43.354Z,14.80
2018-11-05T19:14:16.942Z,14.80
2018-11-05T19:16:50.274Z,14.80
2018-11-05T19:19:23.444Z,14.79
2018-11-05T19:21:56.621Z,14.74
2018-11-05T19:24:29.635Z,14.77
2018-11-05T19:27:01.266Z,14.81
2018-11-05T19:29:34.534Z,14.74
2018-11-05T19:32:08.564Z,14.71
2018-11-05T19:34:40.127Z,14.71
2018-11-05T19:37:13.677Z,14.72
2018-11-05T19:39:45.570Z,14.74
2018-11-05T19:42:18.931Z,14.63
2018-11-05T19:44:50.513Z,14.63
2018-11-05T19:47:22.209Z,14.72
2018-11-05T19:49:56.266Z,14.73
2018-11-05T19:52:29.747Z,14.62
2018-11-05T19:55:03.272Z,14.65
2018-11-05T19:57:36.824Z,14.70
2018-11-05T20:02:55.767Z,14.58
2018-11-05T20:05:29.353Z,14.62
2018-11-05T20:08:02.553Z,14.58
2018-11-05T20:10:34.584Z,14.49
2018-11-05T20:13:07.496Z,14.51
2018-11-05T20:15:40.805Z,14.50
2018-11-05T20:18:12.423Z,14.56
2018-11-05T20:20:45.328Z,14.62
2018-11-05T20:23:18.253Z,14.69
2018-11-05T20:25:51.152Z,14.66
2018-11-05T20:28:24.562Z,14.69
2018-11-05T20:30:57.526Z,14.73
2018-11-05T20:33:30.499Z,14.75
2018-11-05T20:36:03.423Z,14.79
2018-11-05T20:38:36.466Z,14.77
2018-11-05T20:41:07.889Z,14.69
2018-11-05T20:43:40.648Z,14.73
2018-11-05T20:46:12.072Z,14.65
2018-11-05T20:48:44.614Z,14.61
2018-11-05T20:51:17.450Z,14.67
2018-11-05T20:53:50.356Z,14.64
2018-11-05T20:56:23.119Z,14.55
2018-11-05T20:58:56.104Z,14.61
2018-11-05T21:01:28.631Z,14.53
2018-11-05T21:04:01.391Z,14.45
2018-11-05T21:06:34.172Z,14.47
2018-11-05T21:09:09.040Z,14.44
2018-11-05T21:11:41.631Z,14.44
2018-11-05T21:14:14.443Z,14.39
2018-11-05T21:16:47.207Z,14.45
2018-11-05T21:19:19.659Z,14.42
2018-11-05T21:21:52.647Z,14.44
2018-11-05T21:24:25.467Z,14.44
2018-11-05T21:26:58.581Z,14.45
2018-11-05T21:29:31.145Z,14.47
2018-11-05T21:32:03.660Z,14.46
2018-11-05T21:34:34.898Z,14.53
2018-11-05T21:37:07.666Z,14.54
2018-11-05T21:39:40.942Z,14.54
2018-11-05T21:42:13.614Z,14.49
2018-11-05T21:44:44.898Z,14.49
2018-11-05T21:47:16.388Z,14.57
2018-11-05T21:49:48.973Z,14.56
2018-11-05T21:52:21.535Z,14.50
2018-11-05T21:54:54.405Z,14.50
2018-11-05T21:57:27.381Z,14.51
2018-11-05T22:00:00.257Z,14.60
2018-11-05T22:02:51.313Z,14.60
2018-11-05T22:05:24.147Z,14.55
2018-11-05T22:07:57.249Z,14.57
2018-11-05T22:10:29.763Z,14.46
2018-11-05T22:13:02.449Z,14.42
2018-11-05T22:15:54.975Z,14.44
2018-11-05T22:18:27.977Z,14.38
2018-11-05T22:21:00.647Z,14.42
2018-11-05T22:23:33.398Z,14.42
2018-11-05T22:26:06.152Z,14.41
2018-11-05T22:28:38.670Z,14.54
2018-11-05T22:31:11.432Z,14.54
2018-11-05T22:33:44.408Z,14.50
2018-11-05T22:36:17.460Z,14.42
2018-11-05T22:38:50.356Z,14.28
2018-11-05T22:41:23.480Z,14.30
2018-11-05T22:43:54.881Z,14.20
2018-11-05T22:46:27.486Z,14.13
2018-11-05T22:49:00.372Z,14.13
2018-11-05T22:51:33.369Z,14.18
2018-11-05T22:54:06.442Z,14.25
2018-11-05T22:56:39.367Z,14.23
2018-11-05T22:59:12.331Z,14.25
2018-11-05T23:01:55.895Z,14.26
2018-11-05T23:04:28.477Z,14.13
2018-11-05T23:07:01.405Z,14.13
2018-11-05T23:09:34.152Z,14.08
2018-11-05T23:12:07.054Z,14.10
2018-11-05T23:14:40.163Z,14.23
2018-11-05T23:17:12.627Z,14.19
2018-11-05T23:19:43.873Z,14.15
2018-11-05T23:22:16.524Z,14.15
2018-11-05T23:24:47.829Z,14.14
2018-11-05T23:27:20.640Z,14.14
2018-11-05T23:29:51.873Z,14.08
2018-11-05T23:32:26.815Z,13.97
2018-11-05T23:34:59.413Z,14.01
2018-11-05T23:37:32.350Z,14.04
2018-11-05T23:40:05.250Z,14.02
2018-11-05T23:42:38.568Z,13.97
2018-11-05T23:45:16.464Z,14.01
2018-11-05T23:47:49.253Z,13.90
2018-11-05T23:50:21.774Z,13.96
2018-11-05T23:56:13.568Z,13.88
2018-11-05T23:58:46.487Z,13.83
